Time;durP1;ratioP1;P1;durP2;ratioP2;P2;SDS_P1;SDS_P2;PMS_P1;PMS_P2;Temp;Humidity;BMP_temperature;BMP_pressure;BME280_temperature;BME280_humidity;BME280_pressure;Samples;Min_cycle;Max_cycle;Signal;HPM_P1;HPM_P2
2022/11/08 00:01:43;;;;;;;;;12.67;10.33;;;;;13.29;73.56;100508.97;4979714;28;45762;-68
2022/11/08 00:04:11;;;;;;;;;9.67;8.67;;;;;13.13;73.61;100476.91;4979518;28;45461;-67
2022/11/08 00:14:51;;;;;;;;;11.00;10.00;;;;;13.21;73.28;100491.09;4980357;28;45352;-67
2022/11/08 00:17:17;;;;;;;;;8.00;8.00;;;;;13.09;73.06;100463.06;4979480;28;45287;-68
2022/11/08 00:19:43;;;;;;;;;11.00;9.67;;;;;13.03;73.34;100447.72;4978896;28;45530;-67
2022/11/08 00:22:10;;;;;;;;;12.00;10.00;;;;;13.15;73.18;100459.72;4979060;28;45627;-68
2022/11/08 00:24:36;;;;;;;;;11.00;10.00;;;;;13.17;73.31;100463.06;4977980;28;45483;-68
2022/11/08 00:27:06;;;;;;;;;10.67;9.33;;;;;13.04;73.09;100439.56;4979519;28;45486;-67
2022/11/08 00:29:35;;;;;;;;;11.67;10.33;;;;;13.13;73.17;100463.56;4979281;28;45382;-67
2022/11/08 00:32:05;;;;;;;;;5.00;4.67;;;;;12.47;72.98;100338.19;4978439;28;45706;-69
2022/11/08 00:34:34;;;;;;;;;10.00;9.00;;;;;12.98;73.17;100420.69;4993999;28;46344;-68
2022/11/08 00:37:00;;;;;;;;;10.33;8.67;;;;;13.08;72.82;100442.72;4977567;28;45550;-68
2022/11/08 00:39:26;;;;;;;;;9.33;9.00;;;;;12.29;72.97;100302.00;4977976;28;45401;-67
2022/11/08 00:41:51;;;;;;;;;10.33;9.67;;;;;12.55;72.63;100339.16;4978734;28;46545;-68
2022/11/08 00:44:17;;;;;;;;;10.00;9.00;;;;;12.83;72.35;100380.53;4978616;28;45523;-67
2022/11/08 00:46:42;;;;;;;;;7.33;7.33;;;;;13.05;72.54;100409.19;4978817;28;45879;-67
2022/11/08 00:49:08;;;;;;;;;7.67;7.33;;;;;12.73;72.76;100345.16;4993663;28;45576;-68
2022/11/08 00:51:34;;;;;;;;;8.67;8.00;;;;;13.05;72.30;100401.19;4978534;28;45618;-67
2022/11/08 00:53:59;;;;;;;;;7.67;7.67;;;;;12.36;72.06;100285.19;4978535;28;45429;-67
2022/11/08 00:56:25;;;;;;;;;10.00;8.00;;;;;12.45;72.22;100300.19;4979157;28;45290;-67
2022/11/08 00:58:50;;;;;;;;;8.00;7.00;;;;;12.93;71.95;100383.84;4978945;28;45603;-67
2022/11/08 01:01:18;;;;;;;;;7.00;7.00;;;;;12.97;72.09;100387.84;4979063;28;46416;-68
2022/11/08 01:03:44;;;;;;;;;7.00;7.00;;;;;12.81;71.92;100377.16;4978723;28;45457;-67
2022/11/08 01:06:12;;;;;;;;;10.33;7.33;;;;;12.92;72.02;100390.19;4978346;28;45243;-68
2022/11/08 01:08:39;;;;;;;;;6.00;6.00;;;;;12.88;72.10;100388.03;4978383;28;45199;-67
2022/11/08 01:11:07;;;;;;;;;7.00;5.67;;;;;12.86;71.97;100388.19;4978071;28;46843;-66
2022/11/08 01:13:33;;;;;;;;;9.00;8.00;;;;;12.48;72.00;100325.69;4978031;28;45508;-66
2022/11/08 01:16:06;;;;;;;;;8.00;8.00;;;;;12.84;72.18;100384.84;4978094;28;45465;-68
2022/11/08 01:18:31;;;;;;;;;7.33;5.00;;;;;12.64;71.58;100351.53;4977353;28;45612;-67
2022/11/08 01:20:57;;;;;;;;;6.00;6.00;;;;;12.84;71.85;100398.19;4977673;28;47872;-67
2022/11/08 01:23:22;;;;;;;;;7.67;7.67;;;;;12.63;71.27;100352.53;4978121;28;45428;-66
2022/11/08 01:25:47;;;;;;;;;6.00;6.00;;;;;11.62;71.67;100187.53;4977854;28;55912;-67
2022/11/08 01:28:13;;;;;;;;;2.67;2.33;;;;;12.55;71.81;100340.00;4978594;28;45518;-67
2022/11/08 01:30:40;;;;;;;;;8.00;8.00;;;;;12.67;71.91;100367.19;4992949;28;47250;-67
2022/11/08 01:33:07;;;;;;;;;7.33;6.00;;;;;12.64;71.03;100362.19;4977864;28;45430;-67
2022/11/08 01:35:33;;;;;;;;;6.00;6.00;;;;;12.69;71.83;100391.84;4978027;28;45223;-68
2022/11/08 01:38:00;;;;;;;;;5.00;5.00;;;;;12.64;71.45;100379.03;4978065;28;45524;-67
2022/11/08 01:40:26;;;;;;;;;5.67;5.00;;;;;12.62;71.54;100372.19;4977611;28;46832;-67
2022/11/08 01:42:52;;;;;;;;;10.33;7.00;;;;;11.95;71.07;100278.97;4976906;28;45342;-67
2022/11/08 01:45:55;;;;;;;;;7.00;7.00;;;;;12.56;71.86;100372.84;4977956;28;45575;-65
2022/11/08 01:48:22;;;;;;;;;7.00;5.67;;;;;12.38;71.56;100343.66;4977831;28;45283;-66
2022/11/08 01:50:48;;;;;;;;;5.33;5.33;;;;;12.59;71.26;100364.50;4977767;28;47164;-68
2022/11/08 01:53:14;;;;;;;;;5.67;5.67;;;;;12.24;71.60;100305.19;4977411;28;45473;-68
2022/11/08 01:55:39;;;;;;;;;7.67;7.00;;;;;12.34;71.59;100329.81;4977780;28;45726;-66
2022/11/08 01:58:09;;;;;;;;;7.00;6.33;;;;;12.52;71.57;100350.19;4977854;28;45248;-66
2022/11/08 02:00:38;;;;;;;;;7.00;6.33;;;;;11.67;71.28;100211.84;4977497;28;45672;-66
2022/11/08 02:03:08;;;;;;;;;8.00;5.67;;;;;12.31;71.07;100327.50;4977748;28;45366;-66
2022/11/08 02:05:34;;;;;;;;;8.67;5.00;;;;;12.32;71.51;100334.50;4977696;28;45464;-67
2022/11/08 02:08:07;;;;;;;;;5.00;5.00;;;;;12.39;71.75;100343.50;4977737;28;45466;-67
2022/11/08 02:10:43;;;;;;;;;4.67;4.67;;;;;12.35;71.48;100350.16;4992217;28;47021;-67
2022/11/08 02:13:12;;;;;;;;;7.00;6.00;;;;;12.28;71.44;100313.69;4977308;28;45516;-68
2022/11/08 02:15:38;;;;;;;;;7.00;6.00;;;;;11.57;71.35;100192.50;4977455;28;45328;-68
2022/11/08 02:18:04;;;;;;;;;4.00;4.00;;;;;12.30;71.16;100303.69;4992208;28;45533;-68
2022/11/08 02:20:31;;;;;;;;;7.67;6.33;;;;;12.04;70.92;100264.69;4977142;28;46357;-67
2022/11/08 02:23:09;;;;;;;;;4.00;4.00;;;;;12.40;71.09;100299.84;4976497;28;45484;-67
2022/11/08 02:25:34;;;;;;;;;5.00;4.00;;;;;12.01;70.88;100237.53;4977865;28;45434;-68
2022/11/08 02:27:59;;;;;;;;;6.00;6.00;;;;;12.38;70.63;100288.50;4992511;28;45571;-67
2022/11/08 02:30:34;;;;;;;;;3.33;2.33;;;;;11.56;70.44;100150.91;4977318;28;45310;-67
2022/11/08 02:33:00;;;;;;;;;5.00;5.00;;;;;12.34;70.53;100273.03;4976992;28;45402;-67
2022/11/08 02:35:29;;;;;;;;;7.00;7.00;;;;;12.37;70.43;100265.50;4977352;28;45287;-68
2022/11/08 02:37:54;;;;;;;;;6.00;6.00;;;;;12.32;69.87;100254.53;4977466;28;45187;-67
2022/11/08 02:40:20;;;;;;;;;4.33;4.33;;;;;11.98;69.79;100189.91;4976972;28;46544;-68
2022/11/08 02:42:45;;;;;;;;;5.33;4.67;;;;;12.40;69.39;100257.19;4976727;28;57073;-67
2022/11/08 02:45:11;;;;;;;;;5.67;5.33;;;;;12.15;69.77;100226.22;4977160;28;45498;-67
2022/11/08 02:47:36;;;;;;;;;4.00;4.00;;;;;12.08;69.44;100219.88;4977184;28;45453;-67
2022/11/08 02:50:02;;;;;;;;;4.00;4.00;;;;;12.37;69.25;100257.53;4976995;28;46520;-67
2022/11/08 02:52:27;;;;;;;;;4.00;4.00;;;;;12.42;69.09;100265.03;4976699;28;45401;-68
2022/11/08 02:54:53;;;;;;;;;4.00;4.00;;;;;12.38;68.41;100261.00;4977434;28;46644;-67
2022/11/08 02:57:18;;;;;;;;;5.00;4.00;;;;;12.38;68.68;100263.69;4980710;28;45449;-67
2022/11/08 02:59:43;;;;;;;;;4.67;4.67;;;;;12.32;68.39;100233.19;4980281;28;45665;-68
2022/11/08 03:02:08;;;;;;;;;7.00;4.67;;;;;11.71;68.21;100133.28;4979578;28;45328;-67
2022/11/08 03:04:34;;;;;;;;;3.33;2.00;;;;;12.25;67.75;100212.72;4995224;28;54522;-68
2022/11/08 03:06:59;;;;;;;;;6.33;4.00;;;;;12.41;67.81;100242.88;4980424;28;45641;-66
2022/11/08 03:09:26;;;;;;;;;4.00;4.00;;;;;12.44;67.21;100253.19;4980119;28;46486;-67
2022/11/08 03:11:51;;;;;;;;;4.33;4.33;;;;;12.23;67.27;100226.22;4978502;28;45346;-69
2022/11/08 03:14:17;;;;;;;;;3.67;3.67;;;;;12.38;67.68;100261.84;4980081;28;45290;-69
2022/11/08 03:16:42;;;;;;;;;4.00;3.00;;;;;12.20;67.29;100229.19;4995587;28;45444;-67
2022/11/08 03:19:10;;;;;;;;;4.33;4.33;;;;;12.39;67.04;100234.19;4981712;28;46531;-66
2022/11/08 03:21:35;;;;;;;;;4.33;4.33;;;;;10.88;66.90;99996.84;4982165;28;45229;-66
2022/11/08 03:24:01;;;;;;;;;4.00;4.00;;;;;12.38;66.73;100250.34;4981440;28;45227;-68
2022/11/08 03:26:26;;;;;;;;;5.00;5.00;;;;;12.14;67.07;100229.88;4981101;28;45223;-66
2022/11/08 03:28:52;;;;;;;;;6.00;6.00;;;;;12.33;66.81;100253.53;4979990;28;46629;-69
2022/11/08 03:31:17;;;;;;;;;5.67;5.00;;;;;12.36;67.02;100255.84;4978565;28;45281;-67
2022/11/08 03:33:42;;;;;;;;;5.67;5.00;;;;;12.15;66.73;100215.56;4979856;28;45322;-67
2022/11/08 03:36:08;;;;;;;;;5.33;4.00;;;;;12.26;66.62;100249.88;4978506;28;45477;-67
2022/11/08 03:38:33;;;;;;;;;6.00;5.00;;;;;12.26;66.55;100239.22;4979794;28;46259;-68
2022/11/08 03:40:59;;;;;;;;;7.67;6.00;;;;;12.22;66.89;100256.53;4979935;28;45522;-68
2022/11/08 03:43:25;;;;;;;;;2.00;2.00;;;;;12.20;67.05;100245.19;4980395;28;45373;-67
2022/11/08 03:45:50;;;;;;;;;5.00;5.00;;;;;12.22;66.47;100237.06;4980379;28;45464;-66
2022/11/08 03:48:16;;;;;;;;;5.00;4.00;;;;;12.22;66.90;100243.22;4979773;28;45521;-68
2022/11/08 03:50:41;;;;;;;;;6.33;5.00;;;;;12.12;66.71;100215.88;4978615;28;45397;-68
2022/11/08 03:53:06;;;;;;;;;4.67;4.67;;;;;12.27;66.71;100235.53;4979784;28;45498;-66
2022/11/08 03:55:32;;;;;;;;;5.00;5.00;;;;;12.26;66.25;100238.38;4980015;28;45428;-68
2022/11/08 03:57:57;;;;;;;;;7.00;5.67;;;;;12.13;66.59;100220.22;4979791;28;45555;-70
2022/11/08 04:00:26;;;;;;;;;3.67;3.00;;;;;12.26;66.13;100257.03;4979097;28;45532;-67
2022/11/08 04:02:52;;;;;;;;;3.00;3.00;;;;;12.24;65.87;100241.22;4977634;28;45438;-67
2022/11/08 04:05:18;;;;;;;;;2.33;2.33;;;;;12.09;65.94;100226.88;4978993;28;45326;-68
2022/11/08 04:07:43;;;;;;;;;6.67;4.00;;;;;12.20;66.28;100239.84;4978724;28;45896;-67
2022/11/08 04:10:10;;;;;;;;;4.00;4.00;;;;;10.58;66.06;99975.16;4978947;28;45340;-66
2022/11/08 04:15:25;;;;;;;;;5.67;5.00;;;;;11.72;65.91;100168.72;4979287;28;45369;-67
2022/11/08 04:23:26;;;;;;;;;5.00;5.00;;;;;12.18;65.82;100240.03;4979136;28;45364;-66
2022/11/08 04:26:06;;;;;;;;;4.33;4.33;;;;;11.73;65.85;100184.53;4979200;28;45249;-68
2022/11/08 04:28:33;;;;;;;;;5.00;3.33;;;;;11.81;65.94;100192.59;4994025;28;47743;-67
2022/11/08 04:31:01;;;;;;;;;4.00;4.00;;;;;12.03;65.79;100227.56;4978610;28;45466;-68
2022/11/08 04:33:27;;;;;;;;;6.00;4.00;;;;;12.04;65.51;100221.22;4993440;28;45593;-67
2022/11/08 04:35:52;;;;;;;;;4.33;3.33;;;;;11.97;65.80;100197.06;4978794;28;45445;-66
2022/11/08 04:38:18;;;;;;;;;4.00;4.00;;;;;12.17;65.67;100237.53;4978305;28;46408;-67
2022/11/08 04:40:44;;;;;;;;;4.33;4.33;;;;;12.11;65.28;100231.03;4978755;28;45456;-66
2022/11/08 04:43:10;;;;;;;;;2.00;2.00;;;;;12.17;65.30;100234.88;4978880;28;45472;-67
2022/11/08 04:45:35;;;;;;;;;5.00;5.00;;;;;12.15;65.91;100247.53;4977456;28;45609;-66
2022/11/08 04:48:01;;;;;;;;;5.33;5.33;;;;;12.04;65.35;100213.22;4978356;28;46037;-67
2022/11/08 04:50:29;;;;;;;;;6.00;6.00;;;;;11.78;65.20;100182.25;4978254;28;45488;-66
2022/11/08 04:52:55;;;;;;;;;5.33;4.33;;;;;12.14;65.54;100232.53;4978605;28;45530;-68
2022/11/08 04:55:21;;;;;;;;;5.33;4.00;;;;;11.86;65.74;100194.75;4979020;28;45410;-68
2022/11/08 04:57:48;;;;;;;;;7.67;4.67;;;;;11.19;65.55;100090.13;4979383;28;46826;-67
2022/11/08 05:00:14;;;;;;;;;4.33;4.33;;;;;12.05;65.52;100236.22;4977255;28;45438;-68
2022/11/08 05:02:40;;;;;;;;;6.67;6.67;;;;;12.08;65.85;100243.88;4978375;28;45247;-66
2022/11/08 05:05:06;;;;;;;;;7.67;5.00;;;;;11.69;66.05;100169.91;4977473;28;45514;-69
2022/11/08 05:07:31;;;;;;;;;5.00;5.00;;;;;11.42;65.60;100135.59;4978236;28;46813;-67
2022/11/08 05:09:56;;;;;;;;;3.33;3.33;;;;;11.76;65.29;100181.53;4978564;28;45433;-66
2022/11/08 05:12:22;;;;;;;;;5.00;3.33;;;;;12.02;65.66;100216.06;4993327;28;45275;-68
2022/11/08 05:14:48;;;;;;;;;8.00;8.00;;;;;11.83;65.75;100193.25;4976947;28;45263;-67
2022/11/08 05:17:13;;;;;;;;;3.00;3.00;;;;;12.00;65.74;100235.84;4978330;28;46020;-66
2022/11/08 05:25:07;;;;;;;;;3.33;3.00;;;;;12.00;65.82;100233.19;4978430;28;45431;-66
2022/11/08 05:27:33;;;;;;;;;5.67;4.00;;;;;11.93;65.22;100237.53;4977617;28;45691;-68
2022/11/08 05:29:59;;;;;;;;;4.50;3.50;;;;;11.96;65.85;100238.03;4977896;28;45459;-68
2022/11/08 05:32:24;;;;;;;;;5.00;5.00;;;;;11.24;65.57;100109.94;4977677;28;45303;-68
2022/11/08 05:34:49;;;;;;;;;4.67;4.67;;;;;11.91;65.51;100236.84;4978272;28;45504;-68
2022/11/08 05:37:15;;;;;;;;;4.00;4.00;;;;;11.32;65.28;100126.91;4977755;28;46770;-68
2022/11/08 05:39:40;;;;;;;;;4.67;4.67;;;;;12.02;65.59;100241.88;4977973;28;45451;-68
2022/11/08 05:42:06;;;;;;;;;5.00;5.00;;;;;12.02;65.51;100234.72;4978124;28;45276;-68
2022/11/08 05:44:31;;;;;;;;;3.00;3.00;;;;;12.00;65.00;100227.88;4993010;28;45347;-67
2022/11/08 05:47:05;;;;;;;;;5.00;4.00;;;;;11.72;65.36;100192.69;4978356;28;46337;-67
2022/11/08 05:49:31;;;;;;;;;5.00;5.00;;;;;11.97;65.12;100222.88;4976628;28;45357;-68
2022/11/08 05:51:59;;;;;;;;;5.00;4.00;;;;;11.70;65.20;100181.38;4992781;28;45607;-68
2022/11/08 05:54:24;;;;;;;;;4.67;4.67;;;;;11.94;65.61;100229.38;4978059;28;45477;-68
2022/11/08 05:56:50;;;;;;;;;5.00;4.00;;;;;11.93;65.49;100232.19;4993001;28;46389;-68
2022/11/08 05:59:15;;;;;;;;;4.00;4.00;;;;;11.54;65.53;100175.03;4978624;28;45271;-66
2022/11/08 06:01:41;;;;;;;;;4.00;4.00;;;;;11.93;65.24;100225.03;4978130;28;45278;-68
2022/11/08 06:04:06;;;;;;;;;5.67;4.00;;;;;11.95;65.35;100230.19;4993300;28;45521;-68
2022/11/08 06:06:31;;;;;;;;;4.67;3.67;;;;;11.95;65.37;100230.19;4977777;28;45639;-68
2022/11/08 06:08:57;;;;;;;;;6.67;5.33;;;;;11.96;65.43;100222.03;4977845;28;45219;-65
2022/11/08 06:11:25;;;;;;;;;5.67;4.33;;;;;11.95;65.43;100219.53;4977874;28;45212;-70
2022/11/08 06:13:51;;;;;;;;;6.33;5.00;;;;;11.96;65.59;100213.22;4977939;28;45533;-67
2022/11/08 06:16:18;;;;;;;;;4.33;4.00;;;;;11.95;64.85;100222.22;4978236;28;45772;-68
2022/11/08 06:18:43;;;;;;;;;7.00;5.00;;;;;11.94;65.19;100224.03;4978499;28;45469;-67
2022/11/08 06:21:15;;;;;;;;;3.00;3.00;;;;;11.59;65.59;100182.50;4978048;28;45452;-68
2022/11/08 06:23:41;;;;;;;;;5.00;5.00;;;;;11.91;65.11;100234.19;4978111;28;45364;-69
2022/11/08 06:26:07;;;;;;;;;3.33;3.33;;;;;11.76;65.38;100216.16;4975839;28;46746;-69
2022/11/08 06:28:33;;;;;;;;;6.33;4.33;;;;;11.78;65.21;100208.88;4978132;28;45332;-68
2022/11/08 06:31:00;;;;;;;;;3.33;3.33;;;;;11.79;65.36;100194.56;4984741;28;45476;-69
2022/11/08 06:33:25;;;;;;;;;4.67;4.67;;;;;10.80;65.28;100048.16;4984316;28;45472;-69
2022/11/08 06:35:51;;;;;;;;;5.00;4.00;;;;;11.48;65.60;100169.53;4984763;28;46721;-67
2022/11/08 06:38:16;;;;;;;;;5.33;5.33;;;;;11.73;65.32;100210.34;4984781;28;46351;-67
2022/11/08 06:40:42;;;;;;;;;5.33;5.33;;;;;11.83;65.15;100232.38;4982795;28;45894;-69
2022/11/08 06:43:10;;;;;;;;;5.33;5.00;;;;;11.80;65.60;100254.81;4984176;28;45429;-68
2022/11/08 06:45:36;;;;;;;;;4.00;4.00;;;;;11.79;65.34;100244.31;4984979;28;46369;-69
2022/11/08 06:48:02;;;;;;;;;3.00;3.00;;;;;11.41;65.67;100179.16;4984452;28;45405;-68
2022/11/08 06:50:29;;;;;;;;;8.00;5.00;;;;;11.75;65.28;100254.44;4999094;28;45369;-67
2022/11/08 06:52:57;;;;;;;;;3.00;3.00;;;;;11.23;65.73;100166.81;4983858;28;45299;-68
2022/11/08 06:55:22;;;;;;;;;5.33;4.33;;;;;11.88;65.21;100268.16;4984308;28;46353;-68
2022/11/08 06:57:48;;;;;;;;;8.00;5.67;;;;;11.92;65.58;100268.66;4983973;28;45246;-67
2022/11/08 07:00:14;;;;;;;;;4.33;4.33;;;;;10.97;65.46;100107.53;4983309;28;45335;-69
2022/11/08 07:02:39;;;;;;;;;5.33;5.33;;;;;11.34;65.56;100164.84;4976243;28;45542;-68
2022/11/08 07:05:05;;;;;;;;;7.33;5.33;;;;;11.50;65.17;100197.66;4983483;28;46797;-70
2022/11/08 07:07:31;;;;;;;;;5.67;5.67;;;;;11.85;65.55;100257.00;4983700;28;45417;-69
2022/11/08 07:09:56;;;;;;;;;3.00;3.00;;;;;11.64;65.22;100206.00;4983912;28;45330;-69
2022/11/08 07:12:22;;;;;;;;;8.67;6.00;;;;;11.26;65.19;100155.03;4983335;28;45717;-69
2022/11/08 07:14:47;;;;;;;;;7.00;4.00;;;;;11.97;65.00;100270.81;4981089;28;45497;-71
2022/11/08 07:17:14;;;;;;;;;4.33;4.33;;;;;11.82;65.23;100231.53;4982946;28;45314;-70
2022/11/08 07:19:40;;;;;;;;;5.33;5.00;;;;;11.95;64.92;100243.50;4981804;28;45584;-76
2022/11/08 07:22:05;;;;;;;;;4.00;4.00;;;;;12.13;64.78;100276.19;4982979;28;45378;-73
2022/11/08 07:24:31;;;;;;;;;4.67;4.67;;;;;12.16;64.74;100286.50;4983240;28;45299;-72
2022/11/08 07:26:56;;;;;;;;;4.00;4.00;;;;;12.22;64.23;100290.34;4986039;28;45490;-73
2022/11/08 07:29:21;;;;;;;;;4.67;4.67;;;;;11.91;64.44;100228.88;4999655;28;45464;-71
2022/11/08 07:31:47;;;;;;;;;5.00;5.00;;;;;12.29;63.76;100260.19;4981541;28;45489;-73
2022/11/08 07:34:12;;;;;;;;;4.67;4.00;;;;;12.34;64.18;100273.84;4983255;28;45660;-71
2022/11/08 07:36:38;;;;;;;;;5.67;5.67;;;;;12.07;64.26;100224.38;4985103;28;45515;-73
2022/11/08 07:39:03;;;;;;;;;6.33;5.00;;;;;12.41;64.30;100271.34;4985633;28;45527;-74
2022/11/08 07:41:28;;;;;;;;;5.67;5.00;;;;;12.34;63.55;100252.53;4996101;28;45448;-74
2022/11/08 07:43:54;;;;;;;;;7.00;5.33;;;;;12.49;64.01;100276.69;4981342;28;45488;-77
2022/11/08 07:46:19;;;;;;;;;6.33;5.33;;;;;12.43;63.75;100272.88;4980504;28;45511;-71
2022/11/08 07:48:45;;;;;;;;;7.00;5.67;;;;;12.60;63.77;100286.16;5004129;28;45457;-72
2022/11/08 07:51:10;;;;;;;;;4.33;4.33;;;;;12.69;63.69;100277.16;5002473;28;45537;-72
2022/11/08 07:53:35;;;;;;;;;6.00;6.00;;;;;11.93;62.76;100141.63;5002674;28;47448;-73
2022/11/08 07:56:01;;;;;;;;;9.00;9.00;;;;;12.79;63.12;100283.97;4979638;28;45563;-71
2022/11/08 07:58:29;;;;;;;;;5.00;5.00;;;;;12.71;63.49;100264.50;4980687;28;45395;-71
2022/11/08 08:01:00;;;;;;;;;4.00;4.00;;;;;12.78;63.27;100268.13;4967101;28;45429;-72
2022/11/08 08:03:25;;;;;;;;;7.67;5.33;;;;;12.67;63.39;100239.16;4964505;28;45762;-71
2022/11/08 08:05:52;;;;;;;;;4.00;4.00;;;;;12.90;63.18;100288.13;4969214;28;45396;-72
2022/11/08 08:08:18;;;;;;;;;6.33;4.00;;;;;12.07;63.03;100170.28;4964527;28;45456;-72
2022/11/08 08:10:44;;;;;;;;;4.67;4.67;;;;;12.89;63.11;100267.78;4978597;28;45517;-71
2022/11/08 08:13:09;;;;;;;;;5.33;4.00;;;;;11.48;62.96;100031.13;4977546;28;45435;-72
2022/11/08 08:15:35;;;;;;;;;5.00;5.00;;;;;12.64;63.16;100216.34;4976876;28;45386;-72
2022/11/08 08:18:04;;;;;;;;;4.67;4.67;;;;;12.90;63.18;100247.28;4979600;28;45322;-71
2022/11/08 08:20:30;;;;;;;;;4.00;4.00;;;;;13.02;63.50;100257.44;4979842;28;45277;-70
2022/11/08 08:22:56;;;;;;;;;6.00;4.00;;;;;12.39;63.12;100156.88;4979576;28;45589;-75
2022/11/08 08:25:21;;;;;;;;;3.67;3.67;;;;;11.03;63.35;99934.03;4979851;28;45421;-74
2022/11/08 08:27:48;;;;;;;;;4.67;4.00;;;;;13.06;63.02;100236.56;4994232;28;45942;-72
2022/11/08 08:30:14;;;;;;;;;6.00;5.00;;;;;12.80;63.54;100200.25;4979391;28;45681;-71
2022/11/08 08:32:40;;;;;;;;;5.00;4.00;;;;;13.17;63.43;100248.69;4978832;28;45894;-71
2022/11/08 08:35:06;;;;;;;;;6.33;4.67;;;;;13.17;63.52;100230.00;4979423;28;45290;-75
2022/11/08 08:37:31;;;;;;;;;5.00;3.33;;;;;13.21;63.45;100220.66;4979552;28;45326;-72
2022/11/08 08:39:57;;;;;;;;;4.33;4.00;;;;;13.36;63.39;100237.63;4980646;28;45386;-72
2022/11/08 08:42:22;;;;;;;;;4.67;4.67;;;;;13.34;62.81;100242.31;4985968;28;45996;-71
2022/11/08 08:44:47;;;;;;;;;3.33;2.00;;;;;13.58;63.18;100263.53;4997680;28;45531;-72
2022/11/08 08:47:13;;;;;;;;;5.00;5.00;;;;;12.83;62.67;100104.91;4995330;28;45543;-72
2022/11/08 08:49:38;;;;;;;;;6.00;6.00;;;;;13.82;61.94;100232.38;4979057;28;45485;-71
2022/11/08 08:52:04;;;;;;;;;4.00;4.00;;;;;13.91;61.82;100236.63;4976424;28;47029;-73
2022/11/08 08:54:29;;;;;;;;;3.33;3.00;;;;;14.13;62.02;100257.19;4994124;28;45347;-72
2022/11/08 08:56:55;;;;;;;;;5.67;5.33;;;;;14.21;61.60;100265.13;4979564;28;45512;-72
2022/11/08 08:59:20;;;;;;;;;4.00;4.00;;;;;14.09;61.54;100225.66;4979430;28;45563;-71
2022/11/08 09:01:45;;;;;;;;;6.67;5.33;;;;;13.89;61.53;100193.22;4993766;28;48404;-72
2022/11/08 09:04:11;;;;;;;;;6.00;4.33;;;;;14.34;61.39;100255.69;4979535;28;45487;-72
2022/11/08 09:06:36;;;;;;;;;3.50;2.50;;;;;14.44;61.23;100264.31;4978849;28;45424;-72
2022/11/08 09:09:02;;;;;;;;;4.00;4.00;;;;;13.94;61.07;100161.44;4978728;28;45805;-71
2022/11/08 09:11:27;;;;;;;;;4.00;4.00;;;;;14.54;61.37;100265.72;4977577;28;46352;-69
2022/11/08 09:13:53;;;;;;;;;7.00;4.00;;;;;14.69;61.15;100271.09;4979309;28;45489;-72
2022/11/08 09:16:18;;;;;;;;;9.00;4.33;;;;;13.82;60.75;100117.47;4977966;28;45368;-72
2022/11/08 09:18:44;;;;;;;;;6.33;4.33;;;;;14.77;61.04;100260.31;4976549;28;45389;-72
2022/11/08 09:21:09;;;;;;;;;1.67;1.67;;;;;14.93;60.60;100278.06;4964108;28;46138;-77
2022/11/08 09:23:35;;;;;;;;;4.00;4.00;;;;;15.07;60.55;100271.06;4991487;28;45494;-76
2022/11/08 09:26:04;;;;;;;;;4.00;2.00;;;;;14.36;60.10;100133.31;4976183;28;45560;-71
2022/11/08 09:28:32;;;;;;;;;4.00;3.00;;;;;15.17;59.88;100244.81;4978930;28;45370;-73
2022/11/08 09:31:00;;;;;;;;;3.00;3.00;;;;;14.53;59.93;100122.28;4980691;28;47895;-72
2022/11/08 09:33:25;;;;;;;;;3.67;3.67;;;;;15.59;59.08;100287.00;4978858;28;45520;-73
2022/11/08 09:35:52;;;;;;;;;3.00;2.67;;;;;15.61;59.39;100268.06;4993903;28;45196;-73
2022/11/08 09:38:18;;;;;;;;;3.00;3.00;;;;;15.52;59.01;100238.66;4979188;28;45285;-74
2022/11/08 09:40:56;;;;;;;;;5.00;4.00;;;;;15.88;58.87;100274.56;4978407;28;47516;-75
2022/11/08 09:43:30;;;;;;;;;2.67;2.33;;;;;15.97;58.79;100268.88;4978714;28;45621;-74
2022/11/08 09:45:56;;;;;;;;;3.00;3.00;;;;;16.06;58.38;100272.28;4978908;28;45452;-72
2022/11/08 09:48:28;;;;;;;;;2.00;2.00;;;;;16.08;58.42;100271.06;4994249;28;45893;-73
2022/11/08 09:50:58;;;;;;;;;5.00;4.00;;;;;15.67;58.49;100200.31;4994312;28;47526;-73
2022/11/08 09:53:46;;;;;;;;;3.00;3.00;;;;;15.83;58.72;100229.56;4976199;28;45491;-72
2022/11/08 09:56:22;;;;;;;;;5.33;4.00;;;;;16.05;58.63;100260.72;4980199;28;45287;-73
2022/11/08 09:59:29;;;;;;;;;4.33;4.33;;;;;16.05;59.03;100267.94;4979819;28;45639;-73
2022/11/08 10:01:55;;;;;;;;;4.33;3.00;;;;;15.75;58.99;100221.63;4975599;28;45656;-74
2022/11/08 10:04:24;;;;;;;;;4.67;4.67;;;;;16.05;59.24;100271.44;4977715;28;45403;-73
2022/11/08 10:07:28;;;;;;;;;4.00;3.00;;;;;16.06;59.29;100243.63;4979485;28;45322;-73
2022/11/08 10:09:59;;;;;;;;;3.67;3.67;;;;;16.21;59.45;100264.97;4975280;28;45695;-73
2022/11/08 10:12:42;;;;;;;;;2.33;1.33;;;;;16.31;58.71;100252.09;4978148;28;45936;-73
2022/11/08 10:15:23;;;;;;;;;3.00;3.00;;;;;16.28;58.94;100259.69;4976829;28;45406;-74
2022/11/08 10:18:00;;;;;;;;;4.33;4.33;;;;;15.99;59.25;100201.66;4978151;28;45319;-72
2022/11/08 10:20:34;;;;;;;;;3.00;3.00;;;;;16.43;59.08;100268.50;4978684;28;45179;-73
2022/11/08 10:23:21;;;;;;;;;5.00;2.00;;;;;16.42;59.12;100269.53;4980010;28;45625;-71
2022/11/08 10:26:17;;;;;;;;;3.67;3.67;;;;;16.40;59.51;100268.88;4995155;28;45267;-72
2022/11/08 10:28:49;;;;;;;;;2.67;2.00;;;;;15.70;59.49;100149.03;4978618;28;45355;-72
2022/11/08 10:31:16;;;;;;;;;2.00;2.00;;;;;16.49;59.67;100272.25;4977106;28;45348;-73
2022/11/08 10:33:49;;;;;;;;;2.67;2.00;;;;;16.35;59.60;100241.78;4977779;28;47406;-74
2022/11/08 10:36:38;;;;;;;;;5.00;5.00;;;;;16.60;59.51;100269.03;4979402;28;45568;-74
2022/11/08 10:39:07;;;;;;;;;2.67;2.67;;;;;16.65;59.51;100256.69;4977068;28;45556;-71
2022/11/08 10:41:57;;;;;;;;;4.33;2.33;;;;;16.61;59.78;100260.78;4978620;28;45579;-75
2022/11/08 10:44:24;;;;;;;;;4.00;4.00;;;;;16.68;59.83;100263.56;4975402;28;48012;-75
2022/11/08 10:46:55;;;;;;;;;3.00;3.00;;;;;16.49;60.74;100235.53;4977079;28;46288;-73
2022/11/08 10:49:38;;;;;;;;;2.00;2.00;;;;;16.54;61.84;100243.81;4971488;28;45301;-73
2022/11/08 10:52:18;;;;;;;;;2.00;2.00;;;;;16.71;61.76;100247.88;4976385;28;45473;-74
2022/11/08 10:54:50;;;;;;;;;4.00;2.75;;;;;16.83;61.33;100255.41;4991555;28;46022;-73
2022/11/08 10:57:24;;;;;;;;;5.67;4.67;;;;;16.85;60.77;100240.75;4978238;28;45254;-73
2022/11/08 10:59:50;;;;;;;;;3.00;3.00;;;;;16.82;60.64;100251.03;4977952;28;45250;-74
2022/11/08 11:02:21;;;;;;;;;3.67;3.00;;;;;16.86;60.75;100246.97;4978774;28;45239;-73
2022/11/08 11:04:47;;;;;;;;;4.67;4.67;;;;;16.26;60.65;100143.72;4976598;28;46343;-72
2022/11/08 11:07:33;;;;;;;;;3.00;3.00;;;;;16.78;60.64;100220.25;4977394;28;45370;-73
2022/11/08 11:10:24;;;;;;;;;5.00;3.75;;;;;16.87;60.46;100235.19;4977238;28;45589;-73
2022/11/08 11:13:09;;;;;;;;;5.33;5.33;;;;;16.91;60.50;100229.22;4977568;28;45401;-73
2022/11/08 11:15:45;;;;;;;;;3.50;3.50;;;;;16.97;60.78;100232.97;4963674;28;47654;-71
2022/11/08 11:18:41;;;;;;;;;2.00;2.00;;;;;17.03;60.41;100237.56;4976762;28;45417;-74
2022/11/08 11:21:15;;;;;;;;;9.00;6.33;;;;;17.08;60.60;100239.66;4963703;28;45374;-72
2022/11/08 11:23:50;;;;;;;;;5.00;3.67;;;;;16.89;60.72;100208.97;4980446;28;45257;-76
2022/11/08 11:26:29;;;;;;;;;2.67;2.67;;;;;17.11;60.35;100232.03;4981337;28;46048;-75
2022/11/08 11:29:03;;;;;;;;;5.00;3.33;;;;;17.19;60.48;100229.16;4979288;28;46049;-73
2022/11/08 11:31:50;;;;;;;;;2.00;2.00;;;;;17.17;60.41;100216.97;4997158;28;45402;-74
2022/11/08 11:34:15;;;;;;;;;3.00;3.00;;;;;17.25;60.36;100225.69;4976913;28;45599;-74
2022/11/08 11:36:44;;;;;;;;;2.00;2.00;;;;;17.22;60.42;100215.34;4970611;28;46167;-72
2022/11/08 11:39:27;;;;;;;;;4.00;3.00;;;;;17.45;60.38;100243.75;4978929;28;46046;-75
2022/11/08 11:42:16;;;;;;;;;5.00;5.00;;;;;17.37;60.11;100234.00;4979058;28;45376;-75
2022/11/08 11:45:00;;;;;;;;;4.00;3.25;;;;;17.40;60.10;100246.19;4975163;28;45549;-72
2022/11/08 11:47:42;;;;;;;;;2.25;2.25;;;;;16.97;60.29;100168.53;4978144;28;45828;-72
2022/11/08 11:50:30;;;;;;;;;3.50;2.75;;;;;17.29;61.05;100232.31;4981268;28;45524;-75
2022/11/08 11:52:58;;;;;;;;;4.33;4.33;;;;;16.17;61.34;100077.81;4978500;28;45349;-75